sensor_id;sensor_type;location;lat;lon;timestamp;P1;durP1;ratioP1;P2;durP2;ratioP2
81894;SDS011;71358;45.642;13.758;2023-12-20T00:02:32;6.20;;;5.60;;
81894;SDS011;71358;45.642;13.758;2023-12-20T00:05:17;6.50;;;5.90;;
81894;SDS011;71358;45.642;13.758;2023-12-20T00:08:01;5.85;;;5.35;;
81894;SDS011;71358;45.642;13.758;2023-12-20T00:10:46;6.03;;;5.53;;
81894;SDS011;71358;45.642;13.758;2023-12-20T00:13:30;5.70;;;5.25;;
81894;SDS011;71358;45.642;13.758;2023-12-20T00:16:15;5.53;;;4.80;;
81894;SDS011;71358;45.642;13.758;2023-12-20T00:19:00;6.25;;;5.65;;
81894;SDS011;71358;45.642;13.758;2023-12-20T00:21:45;5.50;;;4.95;;
81894;SDS011;71358;45.642;13.758;2023-12-20T00:24:30;4.70;;;4.30;;
81894;SDS011;71358;45.642;13.758;2023-12-20T00:27:14;5.68;;;5.07;;
81894;SDS011;71358;45.642;13.758;2023-12-20T00:29:59;5.97;;;5.47;;
81894;SDS011;71358;45.642;13.758;2023-12-20T00:32:43;5.70;;;5.22;;
81894;SDS011;71358;45.642;13.758;2023-12-20T00:35:29;5.60;;;5.05;;
81894;SDS011;71358;45.642;13.758;2023-12-20T00:38:14;4.90;;;4.40;;
81894;SDS011;71358;45.642;13.758;2023-12-20T00:40:59;5.03;;;4.63;;
81894;SDS011;71358;45.642;13.758;2023-12-20T00:43:43;5.30;;;4.80;;
81894;SDS011;71358;45.642;13.758;2023-12-20T00:46:28;5.28;;;4.75;;
81894;SDS011;71358;45.642;13.758;2023-12-20T00:49:13;4.65;;;4.28;;
81894;SDS011;71358;45.642;13.758;2023-12-20T00:51:57;5.07;;;4.57;;
81894;SDS011;71358;45.642;13.758;2023-12-20T00:54:42;6.25;;;4.78;;
81894;SDS011;71358;45.642;13.758;2023-12-20T00:57:27;4.78;;;4.38;;
81894;SDS011;71358;45.642;13.758;2023-12-20T01:00:12;4.72;;;4.18;;
81894;SDS011;71358;45.642;13.758;2023-12-20T01:02:56;4.30;;;3.90;;
81894;SDS011;71358;45.642;13.758;2023-12-20T01:05:41;4.60;;;4.20;;
81894;SDS011;71358;45.642;13.758;2023-12-20T01:08:26;4.47;;;4.07;;
81894;SDS011;71358;45.642;13.758;2023-12-20T01:11:11;4.47;;;4.07;;
81894;SDS011;71358;45.642;13.758;2023-12-20T01:13:55;4.32;;;3.92;;
81894;SDS011;71358;45.642;13.758;2023-12-20T01:16:40;4.43;;;4.03;;
81894;SDS011;71358;45.642;13.758;2023-12-20T01:19:25;4.07;;;3.78;;
81894;SDS011;71358;45.642;13.758;2023-12-20T01:22:10;3.80;;;3.45;;
81894;SDS011;71358;45.642;13.758;2023-12-20T01:24:55;4.68;;;4.28;;
81894;SDS011;71358;45.642;13.758;2023-12-20T01:27:39;4.30;;;3.90;;
81894;SDS011;71358;45.642;13.758;2023-12-20T01:30:24;4.00;;;3.70;;
81894;SDS011;71358;45.642;13.758;2023-12-20T01:33:08;4.97;;;4.18;;
81894;SDS011;71358;45.642;13.758;2023-12-20T01:35:53;4.82;;;4.35;;
81894;SDS011;71358;45.642;13.758;2023-12-20T01:38:37;6.05;;;4.03;;
81894;SDS011;71358;45.642;13.758;2023-12-20T01:41:22;3.72;;;3.42;;
81894;SDS011;71358;45.642;13.758;2023-12-20T01:44:06;4.63;;;4.22;;
81894;SDS011;71358;45.642;13.758;2023-12-20T01:46:51;3.33;;;3.03;;
81894;SDS011;71358;45.642;13.758;2023-12-20T01:49:36;3.60;;;3.40;;
81894;SDS011;71358;45.642;13.758;2023-12-20T01:52:20;3.75;;;3.28;;
81894;SDS011;71358;45.642;13.758;2023-12-20T01:55:05;4.70;;;3.92;;
81894;SDS011;71358;45.642;13.758;2023-12-20T01:57:56;3.88;;;3.53;;
81894;SDS011;71358;45.642;13.758;2023-12-20T02:00:41;3.67;;;3.35;;
81894;SDS011;71358;45.642;13.758;2023-12-20T02:03:26;4.70;;;3.67;;
81894;SDS011;71358;45.642;13.758;2023-12-20T02:06:11;4.25;;;3.75;;
81894;SDS011;71358;45.642;13.758;2023-12-20T02:08:55;4.22;;;3.83;;
81894;SDS011;71358;45.642;13.758;2023-12-20T02:11:41;3.75;;;3.45;;
81894;SDS011;71358;45.642;13.758;2023-12-20T02:14:25;4.05;;;3.33;;
81894;SDS011;71358;45.642;13.758;2023-12-20T02:17:10;3.53;;;3.22;;
81894;SDS011;71358;45.642;13.758;2023-12-20T02:19:54;4.22;;;3.83;;
81894;SDS011;71358;45.642;13.758;2023-12-20T02:22:39;3.97;;;3.45;;
81894;SDS011;71358;45.642;13.758;2023-12-20T02:25:24;3.67;;;3.38;;
81894;SDS011;71358;45.642;13.758;2023-12-20T02:28:08;4.07;;;3.53;;
81894;SDS011;71358;45.642;13.758;2023-12-20T02:30:53;3.75;;;3.45;;
81894;SDS011;71358;45.642;13.758;2023-12-20T02:33:37;3.70;;;3.40;;
81894;SDS011;71358;45.642;13.758;2023-12-20T02:36:23;3.97;;;3.63;;
81894;SDS011;71358;45.642;13.758;2023-12-20T02:39:07;3.58;;;3.13;;
81894;SDS011;71358;45.642;13.758;2023-12-20T02:41:52;3.88;;;3.47;;
81894;SDS011;71358;45.642;13.758;2023-12-20T02:44:36;3.85;;;3.55;;
81894;SDS011;71358;45.642;13.758;2023-12-20T02:47:21;3.58;;;2.92;;
81894;SDS011;71358;45.642;13.758;2023-12-20T02:50:06;3.60;;;3.30;;
81894;SDS011;71358;45.642;13.758;2023-12-20T02:52:50;3.65;;;3.35;;
81894;SDS011;71358;45.642;13.758;2023-12-20T02:55:35;2.80;;;2.60;;
81894;SDS011;71358;45.642;13.758;2023-12-20T02:58:19;3.85;;;3.33;;
81894;SDS011;71358;45.642;13.758;2023-12-20T03:01:04;3.50;;;3.20;;
81894;SDS011;71358;45.642;13.758;2023-12-20T03:03:49;3.53;;;3.22;;
81894;SDS011;71358;45.642;13.758;2023-12-20T03:06:33;3.28;;;3.00;;
81894;SDS011;71358;45.642;13.758;2023-12-20T03:09:18;3.70;;;3.40;;
81894;SDS011;71358;45.642;13.758;2023-12-20T03:12:03;3.58;;;3.28;;
81894;SDS011;71358;45.642;13.758;2023-12-20T03:14:48;3.63;;;3.33;;
81894;SDS011;71358;45.642;13.758;2023-12-20T03:17:33;3.50;;;3.20;;
81894;SDS011;71358;45.642;13.758;2023-12-20T03:20:18;3.60;;;3.30;;
81894;SDS011;71358;45.642;13.758;2023-12-20T03:23:02;3.22;;;3.03;;
81894;SDS011;71358;45.642;13.758;2023-12-20T03:25:47;3.75;;;3.45;;
81894;SDS011;71358;45.642;13.758;2023-12-20T03:28:32;3.88;;;3.20;;
81894;SDS011;71358;45.642;13.758;2023-12-20T03:31:17;3.40;;;3.10;;
81894;SDS011;71358;45.642;13.758;2023-12-20T03:34:01;4.50;;;4.03;;
81894;SDS011;71358;45.642;13.758;2023-12-20T03:36:46;3.20;;;2.90;;
81894;SDS011;71358;45.642;13.758;2023-12-20T03:39:31;4.03;;;3.53;;
81894;SDS011;71358;45.642;13.758;2023-12-20T03:42:16;3.55;;;3.20;;
81894;SDS011;71358;45.642;13.758;2023-12-20T03:45:00;3.28;;;3.08;;
81894;SDS011;71358;45.642;13.758;2023-12-20T03:47:45;3.65;;;3.08;;
81894;SDS011;71358;45.642;13.758;2023-12-20T03:50:30;3.08;;;2.83;;
81894;SDS011;71358;45.642;13.758;2023-12-20T03:53:14;3.67;;;3.38;;
81894;SDS011;71358;45.642;13.758;2023-12-20T03:55:59;3.40;;;3.10;;
81894;SDS011;71358;45.642;13.758;2023-12-20T03:58:43;2.80;;;2.60;;
81894;SDS011;71358;45.642;13.758;2023-12-20T04:01:28;3.78;;;2.95;;
81894;SDS011;71358;45.642;13.758;2023-12-20T04:04:13;3.45;;;3.15;;
81894;SDS011;71358;45.642;13.758;2023-12-20T04:06:57;2.95;;;2.75;;
81894;SDS011;71358;45.642;13.758;2023-12-20T04:09:42;3.35;;;3.05;;
81894;SDS011;71358;45.642;13.758;2023-12-20T04:12:30;3.05;;;2.85;;
81894;SDS011;71358;45.642;13.758;2023-12-20T04:15:15;3.92;;;3.17;;
81894;SDS011;71358;45.642;13.758;2023-12-20T04:17:59;3.47;;;3.00;;
81894;SDS011;71358;45.642;13.758;2023-12-20T04:20:44;3.50;;;2.95;;
81894;SDS011;71358;45.642;13.758;2023-12-20T04:23:29;3.22;;;3.03;;
81894;SDS011;71358;45.642;13.758;2023-12-20T04:26:14;3.25;;;2.95;;
81894;SDS011;71358;45.642;13.758;2023-12-20T04:28:58;3.17;;;2.90;;
81894;SDS011;71358;45.642;13.758;2023-12-20T04:31:43;3.33;;;3.03;;
81894;SDS011;71358;45.642;13.758;2023-12-20T04:34:27;3.10;;;2.90;;
81894;SDS011;71358;45.642;13.758;2023-12-20T04:37:12;3.25;;;2.95;;
81894;SDS011;71358;45.642;13.758;2023-12-20T04:39:56;2.97;;;2.78;;
81894;SDS011;71358;45.642;13.758;2023-12-20T04:42:41;2.80;;;2.60;;
81894;SDS011;71358;45.642;13.758;2023-12-20T04:45:25;4.18;;;3.15;;
81894;SDS011;71358;45.642;13.758;2023-12-20T04:48:10;3.10;;;2.80;;
81894;SDS011;71358;45.642;13.758;2023-12-20T04:50:54;4.80;;;3.33;;
81894;SDS011;71358;45.642;13.758;2023-12-20T04:53:39;3.45;;;3.15;;
81894;SDS011;71358;45.642;13.758;2023-12-20T04:56:24;3.30;;;3.00;;
81894;SDS011;71358;45.642;13.758;2023-12-20T04:59:08;3.63;;;2.90;;
81894;SDS011;71358;45.642;13.758;2023-12-20T05:01:53;2.53;;;2.33;;
81894;SDS011;71358;45.642;13.758;2023-12-20T05:04:37;2.42;;;2.17;;
81894;SDS011;71358;45.642;13.758;2023-12-20T05:07:22;3.03;;;2.72;;
81894;SDS011;71358;45.642;13.758;2023-12-20T05:10:07;2.75;;;2.55;;
81894;SDS011;71358;45.642;13.758;2023-12-20T05:12:52;3.20;;;2.80;;
81894;SDS011;71358;45.642;13.758;2023-12-20T05:15:36;2.80;;;2.60;;
81894;SDS011;71358;45.642;13.758;2023-12-20T05:18:21;3.05;;;2.85;;
81894;SDS011;71358;45.642;13.758;2023-12-20T05:21:06;2.88;;;2.53;;
81894;SDS011;71358;45.642;13.758;2023-12-20T05:23:51;2.80;;;2.60;;
81894;SDS011;71358;45.642;13.758;2023-12-20T05:26:35;3.40;;;2.83;;
81894;SDS011;71358;45.642;13.758;2023-12-20T05:29:20;3.30;;;3.00;;
81894;SDS011;71358;45.642;13.758;2023-12-20T05:32:05;2.70;;;2.50;;
81894;SDS011;71358;45.642;13.758;2023-12-20T05:34:49;2.80;;;2.60;;
81894;SDS011;71358;45.642;13.758;2023-12-20T05:37:34;2.65;;;2.45;;
81894;SDS011;71358;45.642;13.758;2023-12-20T05:40:18;2.95;;;2.75;;
81894;SDS011;71358;45.642;13.758;2023-12-20T05:43:03;2.53;;;2.33;;
81894;SDS011;71358;45.642;13.758;2023-12-20T05:45:48;2.85;;;2.50;;
81894;SDS011;71358;45.642;13.758;2023-12-20T05:48:32;2.65;;;2.45;;
81894;SDS011;71358;45.642;13.758;2023-12-20T05:51:17;2.47;;;2.28;;
81894;SDS011;71358;45.642;13.758;2023-12-20T05:54:02;3.47;;;2.50;;
81894;SDS011;71358;45.642;13.758;2023-12-20T05:56:46;4.18;;;2.80;;
81894;SDS011;71358;45.642;13.758;2023-12-20T05:59:31;2.42;;;2.22;;
81894;SDS011;71358;45.642;13.758;2023-12-20T06:02:15;2.83;;;2.63;;
81894;SDS011;71358;45.642;13.758;2023-12-20T06:05:00;2.70;;;2.50;;
81894;SDS011;71358;45.642;13.758;2023-12-20T06:07:45;2.72;;;2.53;;
81894;SDS011;71358;45.642;13.758;2023-12-20T06:10:32;2.85;;;2.42;;
81894;SDS011;71358;45.642;13.758;2023-12-20T06:13:16;3.38;;;2.42;;
81894;SDS011;71358;45.642;13.758;2023-12-20T06:16:01;3.35;;;3.00;;
81894;SDS011;71358;45.642;13.758;2023-12-20T06:18:45;3.00;;;2.22;;
81894;SDS011;71358;45.642;13.758;2023-12-20T06:21:30;3.40;;;3.10;;
81894;SDS011;71358;45.642;13.758;2023-12-20T06:24:14;2.70;;;2.50;;
81894;SDS011;71358;45.642;13.758;2023-12-20T06:26:59;2.47;;;2.28;;
81894;SDS011;71358;45.642;13.758;2023-12-20T06:29:44;2.97;;;2.78;;
81894;SDS011;71358;45.642;13.758;2023-12-20T06:32:28;2.88;;;2.53;;
81894;SDS011;71358;45.642;13.758;2023-12-20T06:35:13;3.55;;;2.83;;
81894;SDS011;71358;45.642;13.758;2023-12-20T06:37:57;2.80;;;2.60;;
81894;SDS011;71358;45.642;13.758;2023-12-20T06:40:42;2.97;;;2.78;;
81894;SDS011;71358;45.642;13.758;2023-12-20T06:43:26;2.88;;;2.67;;
81894;SDS011;71358;45.642;13.758;2023-12-20T06:46:12;3.25;;;2.92;;
81894;SDS011;71358;45.642;13.758;2023-12-20T06:48:57;2.80;;;2.60;;
81894;SDS011;71358;45.642;13.758;2023-12-20T06:51:41;2.95;;;2.67;;
81894;SDS011;71358;45.642;13.758;2023-12-20T06:54:26;3.30;;;2.63;;
81894;SDS011;71358;45.642;13.758;2023-12-20T06:57:11;2.78;;;2.55;;
81894;SDS011;71358;45.642;13.758;2023-12-20T06:59:55;3.17;;;2.67;;
81894;SDS011;71358;45.642;13.758;2023-12-20T07:02:40;2.65;;;2.42;;
81894;SDS011;71358;45.642;13.758;2023-12-20T07:05:25;3.25;;;2.58;;
81894;SDS011;71358;45.642;13.758;2023-12-20T07:08:10;4.10;;;2.97;;
81894;SDS011;71358;45.642;13.758;2023-12-20T07:10:55;3.28;;;3.08;;
81894;SDS011;71358;45.642;13.758;2023-12-20T07:13:39;3.10;;;2.80;;
81894;SDS011;71358;45.642;13.758;2023-12-20T07:16:24;3.72;;;3.28;;
81894;SDS011;71358;45.642;13.758;2023-12-20T07:19:08;4.00;;;2.85;;
81894;SDS011;71358;45.642;13.758;2023-12-20T07:21:53;3.95;;;2.72;;
81894;SDS011;71358;45.642;13.758;2023-12-20T07:24:37;3.67;;;3.22;;
81894;SDS011;71358;45.642;13.758;2023-12-20T07:27:22;3.28;;;2.97;;
81894;SDS011;71358;45.642;13.758;2023-12-20T07:30:07;4.40;;;3.10;;
81894;SDS011;71358;45.642;13.758;2023-12-20T07:32:52;4.03;;;3.00;;
81894;SDS011;71358;45.642;13.758;2023-12-20T07:35:36;6.45;;;3.42;;
81894;SDS011;71358;45.642;13.758;2023-12-20T07:38:21;5.28;;;3.20;;
81894;SDS011;71358;45.642;13.758;2023-12-20T07:41:05;4.97;;;2.85;;
81894;SDS011;71358;45.642;13.758;2023-12-20T07:43:50;5.88;;;3.38;;
81894;SDS011;71358;45.642;13.758;2023-12-20T07:46:35;6.28;;;3.30;;
81894;SDS011;71358;45.642;13.758;2023-12-20T07:49:19;5.57;;;3.80;;
81894;SDS011;71358;45.642;13.758;2023-12-20T07:52:04;3.78;;;3.00;;
81894;SDS011;71358;45.642;13.758;2023-12-20T07:54:49;4.40;;;3.30;;
81894;SDS011;71358;45.642;13.758;2023-12-20T07:57:30;5.47;;;3.50;;
81894;SDS011;71358;45.642;13.758;2023-12-20T08:00:14;3.90;;;3.28;;
81894;SDS011;71358;45.642;13.758;2023-12-20T08:02:59;5.47;;;3.78;;
81894;SDS011;71358;45.642;13.758;2023-12-20T08:05:47;4.70;;;3.80;;
81894;SDS011;71358;45.642;13.758;2023-12-20T08:08:31;7.43;;;3.88;;
81894;SDS011;71358;45.642;13.758;2023-12-20T08:11:16;4.88;;;3.55;;
81894;SDS011;71358;45.642;13.758;2023-12-20T08:14:01;4.78;;;3.70;;
81894;SDS011;71358;45.642;13.758;2023-12-20T08:16:46;3.97;;;3.58;;
81894;SDS011;71358;45.642;13.758;2023-12-20T08:19:30;7.40;;;3.97;;
81894;SDS011;71358;45.642;13.758;2023-12-20T08:22:15;5.60;;;3.95;;
81894;SDS011;71358;45.642;13.758;2023-12-20T08:25:00;5.35;;;4.20;;
81894;SDS011;71358;45.642;13.758;2023-12-20T08:27:45;7.25;;;4.15;;
81894;SDS011;71358;45.642;13.758;2023-12-20T08:30:29;6.38;;;4.68;;
81894;SDS011;71358;45.642;13.758;2023-12-20T08:33:15;5.47;;;4.20;;
81894;SDS011;71358;45.642;13.758;2023-12-20T08:35:59;5.88;;;4.38;;
81894;SDS011;71358;45.642;13.758;2023-12-20T08:38:44;5.60;;;4.63;;
81894;SDS011;71358;45.642;13.758;2023-12-20T08:41:28;6.18;;;4.78;;
81894;SDS011;71358;45.642;13.758;2023-12-20T08:44:13;7.93;;;4.75;;
81894;SDS011;71358;45.642;13.758;2023-12-20T08:46:58;5.38;;;4.25;;
81894;SDS011;71358;45.642;13.758;2023-12-20T08:49:42;7.57;;;4.82;;
81894;SDS011;71358;45.642;13.758;2023-12-20T08:52:27;7.65;;;4.93;;
81894;SDS011;71358;45.642;13.758;2023-12-20T08:55:12;4.78;;;4.38;;
81894;SDS011;71358;45.642;13.758;2023-12-20T08:57:58;6.20;;;4.75;;
81894;SDS011;71358;45.642;13.758;2023-12-20T09:00:43;5.82;;;4.35;;
81894;SDS011;71358;45.642;13.758;2023-12-20T09:03:28;5.53;;;4.57;;
81894;SDS011;71358;45.642;13.758;2023-12-20T09:06:13;8.23;;;5.22;;
81894;SDS011;71358;45.642;13.758;2023-12-20T09:08:58;5.40;;;4.63;;
81894;SDS011;71358;45.642;13.758;2023-12-20T09:11:42;6.18;;;5.45;;
81894;SDS011;71358;45.642;13.758;2023-12-20T09:14:29;7.82;;;5.07;;
81894;SDS011;71358;45.642;13.758;2023-12-20T09:17:14;6.03;;;4.97;;
81894;SDS011;71358;45.642;13.758;2023-12-20T09:19:59;6.63;;;5.03;;
81894;SDS011;71358;45.642;13.758;2023-12-20T09:22:44;6.15;;;5.05;;
81894;SDS011;71358;45.642;13.758;2023-12-20T09:25:28;7.55;;;4.95;;
81894;SDS011;71358;45.642;13.758;2023-12-20T09:28:13;6.35;;;5.40;;
81894;SDS011;71358;45.642;13.758;2023-12-20T09:30:58;8.45;;;5.05;;
81894;SDS011;71358;45.642;13.758;2023-12-20T09:33:42;6.25;;;5.20;;
81894;SDS011;71358;45.642;13.758;2023-12-20T09:36:27;6.75;;;4.85;;
81894;SDS011;71358;45.642;13.758;2023-12-20T09:39:13;6.00;;;5.40;;
81894;SDS011;71358;45.642;13.758;2023-12-20T09:42:02;9.65;;;5.50;;
81894;SDS011;71358;45.642;13.758;2023-12-20T09:44:48;6.68;;;5.95;;
81894;SDS011;71358;45.642;13.758;2023-12-20T09:47:32;7.20;;;5.05;;
81894;SDS011;71358;45.642;13.758;2023-12-20T09:50:17;6.28;;;5.20;;
81894;SDS011;71358;45.642;13.758;2023-12-20T09:53:03;6.05;;;5.45;;
81894;SDS011;71358;45.642;13.758;2023-12-20T09:55:52;6.68;;;5.80;;
81894;SDS011;71358;45.642;13.758;2023-12-20T09:58:37;5.72;;;5.22;;
81894;SDS011;71358;45.642;13.758;2023-12-20T10:01:26;6.03;;;5.43;;
81894;SDS011;71358;45.642;13.758;2023-12-20T10:04:13;5.97;;;5.20;;
81894;SDS011;71358;45.642;13.758;2023-12-20T10:07:01;6.85;;;6.05;;
81894;SDS011;71358;45.642;13.758;2023-12-20T10:09:48;9.68;;;5.72;;
81894;SDS011;71358;45.642;13.758;2023-12-20T10:12:33;6.22;;;5.68;;
81894;SDS011;71358;45.642;13.758;2023-12-20T10:15:17;7.15;;;5.43;;
81894;SDS011;71358;45.642;13.758;2023-12-20T10:18:02;8.10;;;6.07;;
81894;SDS011;71358;45.642;13.758;2023-12-20T10:20:48;6.25;;;5.25;;
81894;SDS011;71358;45.642;13.758;2023-12-20T10:23:32;5.82;;;5.32;;
81894;SDS011;71358;45.642;13.758;2023-12-20T10:26:21;6.70;;;5.40;;
81894;SDS011;71358;45.642;13.758;2023-12-20T10:29:07;6.78;;;5.25;;
81894;SDS011;71358;45.642;13.758;2023-12-20T10:31:51;5.65;;;5.13;;
81894;SDS011;71358;45.642;13.758;2023-12-20T10:34:41;10.50;;;5.90;;
81894;SDS011;71358;45.642;13.758;2023-12-20T10:37:26;10.00;;;5.80;;
81894;SDS011;71358;45.642;13.758;2023-12-20T10:40:10;8.07;;;6.13;;
81894;SDS011;71358;45.642;13.758;2023-12-20T10:42:57;6.85;;;5.75;;
81894;SDS011;71358;45.642;13.758;2023-12-20T10:45:43;6.00;;;5.40;;
81894;SDS011;71358;45.642;13.758;2023-12-20T10:48:28;9.88;;;5.65;;
81894;SDS011;71358;45.642;13.758;2023-12-20T10:51:17;6.38;;;5.78;;
81894;SDS011;71358;45.642;13.758;2023-12-20T10:54:02;6.32;;;5.57;;
81894;SDS011;71358;45.642;13.758;2023-12-20T10:56:47;8.32;;;5.18;;
81894;SDS011;71358;45.642;13.758;2023-12-20T10:59:36;7.32;;;6.10;;
81894;SDS011;71358;45.642;13.758;2023-12-20T11:02:22;7.30;;;5.53;;
81894;SDS011;71358;45.642;13.758;2023-12-20T11:08:26;6.05;;;5.40;;
81894;SDS011;71358;45.642;13.758;2023-12-20T11:11:21;7.00;;;5.57;;
81894;SDS011;71358;45.642;13.758;2023-12-20T11:14:22;6.25;;;5.65;;
81894;SDS011;71358;45.642;13.758;2023-12-20T11:17:10;6.05;;;5.45;;
81894;SDS011;71358;45.642;13.758;2023-12-20T11:23:03;5.72;;;5.22;;
81894;SDS011;71358;45.642;13.758;2023-12-20T11:25:49;5.47;;;4.97;;
81894;SDS011;71358;45.642;13.758;2023-12-20T11:28:36;7.20;;;5.60;;
81894;SDS011;71358;45.642;13.758;2023-12-20T11:31:20;5.95;;;5.13;;
81894;SDS011;71358;45.642;13.758;2023-12-20T11:34:14;5.97;;;5.07;;
81894;SDS011;71358;45.642;13.758;2023-12-20T11:37:02;6.60;;;5.38;;
81894;SDS011;71358;45.642;13.758;2023-12-20T11:39:56;5.88;;;5.30;;
81894;SDS011;71358;45.642;13.758;2023-12-20T11:42:45;8.55;;;5.50;;
81894;SDS011;71358;45.642;13.758;2023-12-20T11:45:32;6.00;;;5.13;;
81894;SDS011;71358;45.642;13.758;2023-12-20T11:48:18;5.93;;;5.25;;
81894;SDS011;71358;45.642;13.758;2023-12-20T11:51:08;5.90;;;5.05;;
81894;SDS011;71358;45.642;13.758;2023-12-20T11:53:54;8.70;;;5.95;;
81894;SDS011;71358;45.642;13.758;2023-12-20T11:56:38;7.60;;;5.03;;
81894;SDS011;71358;45.642;13.758;2023-12-20T11:59:23;6.60;;;5.45;;
81894;SDS011;71358;45.642;13.758;2023-12-20T12:02:07;15.10;;;12.40;;
81894;SDS011;71358;45.642;13.758;2023-12-20T12:04:52;10.13;;;8.95;;
81894;SDS011;71358;45.642;13.758;2023-12-20T12:07:37;8.73;;;7.32;;
81894;SDS011;71358;45.642;13.758;2023-12-20T12:10:21;12.32;;;9.52;;
81894;SDS011;71358;45.642;13.758;2023-12-20T12:13:06;19.98;;;10.48;;
81894;SDS011;71358;45.642;13.758;2023-12-20T12:15:51;14.25;;;9.65;;
81894;SDS011;71358;45.642;13.758;2023-12-20T12:18:35;13.85;;;10.68;;
81894;SDS011;71358;45.642;13.758;2023-12-20T12:21:20;12.77;;;10.10;;
81894;SDS011;71358;45.642;13.758;2023-12-20T12:24:08;11.25;;;7.80;;
81894;SDS011;71358;45.642;13.758;2023-12-20T12:26:56;10.75;;;7.95;;
81894;SDS011;71358;45.642;13.758;2023-12-20T12:29:59;12.38;;;8.82;;
81894;SDS011;71358;45.642;13.758;2023-12-20T12:32:46;10.07;;;7.50;;
81894;SDS011;71358;45.642;13.758;2023-12-20T12:35:30;10.10;;;7.00;;
81894;SDS011;71358;45.642;13.758;2023-12-20T12:38:15;7.93;;;7.07;;
81894;SDS011;71358;45.642;13.758;2023-12-20T12:41:00;9.65;;;6.78;;
81894;SDS011;71358;45.642;13.758;2023-12-20T12:43:44;8.43;;;6.25;;
81894;SDS011;71358;45.642;13.758;2023-12-20T12:46:29;10.40;;;6.82;;
81894;SDS011;71358;45.642;13.758;2023-12-20T12:49:13;7.47;;;6.78;;
81894;SDS011;71358;45.642;13.758;2023-12-20T12:51:58;7.53;;;6.80;;
81894;SDS011;71358;45.642;13.758;2023-12-20T12:54:43;8.43;;;7.05;;
81894;SDS011;71358;45.642;13.758;2023-12-20T12:57:28;9.63;;;7.85;;
81894;SDS011;71358;45.642;13.758;2023-12-20T13:00:13;8.55;;;7.32;;
81894;SDS011;71358;45.642;13.758;2023-12-20T13:02:58;7.85;;;7.03;;
81894;SDS011;71358;45.642;13.758;2023-12-20T13:05:42;10.93;;;7.00;;
81894;SDS011;71358;45.642;13.758;2023-12-20T13:08:28;9.40;;;7.35;;
81894;SDS011;71358;45.642;13.758;2023-12-20T13:11:13;10.48;;;8.05;;
81894;SDS011;71358;45.642;13.758;2023-12-20T13:13:57;8.13;;;6.55;;
81894;SDS011;71358;45.642;13.758;2023-12-20T13:16:42;8.60;;;7.68;;
81894;SDS011;71358;45.642;13.758;2023-12-20T13:19:26;8.63;;;7.32;;
81894;SDS011;71358;45.642;13.758;2023-12-20T13:22:11;10.32;;;7.18;;
81894;SDS011;71358;45.642;13.758;2023-12-20T13:24:56;8.73;;;7.22;;
81894;SDS011;71358;45.642;13.758;2023-12-20T13:27:40;10.00;;;7.60;;
81894;SDS011;71358;45.642;13.758;2023-12-20T13:30:25;8.25;;;7.30;;
81894;SDS011;71358;45.642;13.758;2023-12-20T13:33:10;10.48;;;6.72;;
81894;SDS011;71358;45.642;13.758;2023-12-20T13:35:55;8.45;;;7.30;;
81894;SDS011;71358;45.642;13.758;2023-12-20T13:38:42;9.70;;;7.15;;
81894;SDS011;71358;45.642;13.758;2023-12-20T13:41:27;9.52;;;7.15;;
81894;SDS011;71358;45.642;13.758;2023-12-20T13:44:11;7.53;;;6.45;;
81894;SDS011;71358;45.642;13.758;2023-12-20T13:46:56;10.80;;;6.95;;
81894;SDS011;71358;45.642;13.758;2023-12-20T13:49:40;8.52;;;7.05;;
81894;SDS011;71358;45.642;13.758;2023-12-20T13:52:25;9.20;;;6.65;;
81894;SDS011;71358;45.642;13.758;2023-12-20T13:55:09;9.38;;;7.10;;
81894;SDS011;71358;45.642;13.758;2023-12-20T13:57:54;7.80;;;6.22;;
81894;SDS011;71358;45.642;13.758;2023-12-20T14:00:39;9.45;;;6.40;;
81894;SDS011;71358;45.642;13.758;2023-12-20T14:03:24;9.77;;;6.70;;
81894;SDS011;71358;45.642;13.758;2023-12-20T14:06:09;8.00;;;6.88;;
81894;SDS011;71358;45.642;13.758;2023-12-20T14:08:53;8.10;;;6.82;;
81894;SDS011;71358;45.642;13.758;2023-12-20T14:11:38;8.23;;;7.15;;
81894;SDS011;71358;45.642;13.758;2023-12-20T14:14:25;9.60;;;6.70;;
81894;SDS011;71358;45.642;13.758;2023-12-20T14:17:09;11.02;;;7.35;;
81894;SDS011;71358;45.642;13.758;2023-12-20T14:19:54;11.88;;;6.93;;
81894;SDS011;71358;45.642;13.758;2023-12-20T14:22:38;8.85;;;6.97;;
81894;SDS011;71358;45.642;13.758;2023-12-20T14:25:27;8.88;;;7.10;;
81894;SDS011;71358;45.642;13.758;2023-12-20T14:28:11;8.27;;;7.22;;
81894;SDS011;71358;45.642;13.758;2023-12-20T14:30:57;10.73;;;6.95;;
81894;SDS011;71358;45.642;13.758;2023-12-20T14:33:42;8.23;;;6.60;;
81894;SDS011;71358;45.642;13.758;2023-12-20T14:36:27;11.13;;;6.82;;
81894;SDS011;71358;45.642;13.758;2023-12-20T14:39:11;8.23;;;6.18;;
81894;SDS011;71358;45.642;13.758;2023-12-20T14:41:56;6.68;;;5.82;;
81894;SDS011;71358;45.642;13.758;2023-12-20T14:44:41;8.00;;;5.95;;
81894;SDS011;71358;45.642;13.758;2023-12-20T14:47:25;7.03;;;6.03;;
81894;SDS011;71358;45.642;13.758;2023-12-20T14:50:10;7.85;;;6.60;;
81894;SDS011;71358;45.642;13.758;2023-12-20T14:53:01;6.60;;;5.78;;
81894;SDS011;71358;45.642;13.758;2023-12-20T14:55:45;7.88;;;6.07;;
81894;SDS011;71358;45.642;13.758;2023-12-20T14:58:30;10.20;;;6.45;;
81894;SDS011;71358;45.642;13.758;2023-12-20T15:01:15;9.10;;;6.18;;
81894;SDS011;71358;45.642;13.758;2023-12-20T15:04:00;9.43;;;6.35;;
81894;SDS011;71358;45.642;13.758;2023-12-20T15:06:45;7.93;;;5.85;;
81894;SDS011;71358;45.642;13.758;2023-12-20T15:09:30;7.22;;;5.68;;
81894;SDS011;71358;45.642;13.758;2023-12-20T15:12:14;9.55;;;5.60;;
81894;SDS011;71358;45.642;13.758;2023-12-20T15:14:59;8.43;;;5.90;;
81894;SDS011;71358;45.642;13.758;2023-12-20T15:17:44;9.18;;;5.68;;
81894;SDS011;71358;45.642;13.758;2023-12-20T15:20:28;7.68;;;5.97;;
81894;SDS011;71358;45.642;13.758;2023-12-20T15:23:13;6.55;;;5.65;;
81894;SDS011;71358;45.642;13.758;2023-12-20T15:25:58;8.35;;;6.28;;
81894;SDS011;71358;45.642;13.758;2023-12-20T15:28:42;6.45;;;5.45;;
81894;SDS011;71358;45.642;13.758;2023-12-20T15:31:27;7.25;;;5.85;;
81894;SDS011;71358;45.642;13.758;2023-12-20T15:34:11;7.72;;;5.68;;
81894;SDS011;71358;45.642;13.758;2023-12-20T15:36:57;8.02;;;6.07;;
81894;SDS011;71358;45.642;13.758;2023-12-20T15:39:41;10.85;;;5.70;;
81894;SDS011;71358;45.642;13.758;2023-12-20T15:42:26;8.20;;;5.85;;
81894;SDS011;71358;45.642;13.758;2023-12-20T15:45:11;5.85;;;5.25;;
81894;SDS011;71358;45.642;13.758;2023-12-20T15:47:55;6.90;;;5.15;;
81894;SDS011;71358;45.642;13.758;2023-12-20T15:50:40;15.13;;;5.88;;
81894;SDS011;71358;45.642;13.758;2023-12-20T15:53:25;7.25;;;5.47;;
81894;SDS011;71358;45.642;13.758;2023-12-20T15:56:09;11.93;;;6.13;;
81894;SDS011;71358;45.642;13.758;2023-12-20T15:58:54;15.95;;;6.13;;
81894;SDS011;71358;45.642;13.758;2023-12-20T16:01:38;13.10;;;5.72;;
81894;SDS011;71358;45.642;13.758;2023-12-20T16:04:23;10.10;;;5.78;;
81894;SDS011;71358;45.642;13.758;2023-12-20T16:07:07;7.63;;;5.75;;
81894;SDS011;71358;45.642;13.758;2023-12-20T16:09:52;10.52;;;5.72;;
81894;SDS011;71358;45.642;13.758;2023-12-20T16:12:37;6.22;;;5.63;;
81894;SDS011;71358;45.642;13.758;2023-12-20T16:15:21;8.98;;;5.75;;
81894;SDS011;71358;45.642;13.758;2023-12-20T16:18:06;7.80;;;5.78;;
81894;SDS011;71358;45.642;13.758;2023-12-20T16:20:54;10.20;;;6.15;;
81894;SDS011;71358;45.642;13.758;2023-12-20T16:23:39;6.90;;;5.88;;
81894;SDS011;71358;45.642;13.758;2023-12-20T16:26:23;8.35;;;6.03;;